Time,TemperatureF,DewpointF,PressureIn,WindDirection,WindDirectionDegrees,WindSpeedMPH,WindSpeedGustMPH,Humidity,HourlyPrecipIn,Conditions,Clouds,dailyrainin,SolarRadiationWatts/m^2,SoftwareType,DateUTC
2013-12-21 00:04:00,68.9,65.2,30.03,NNE,13,0.1,1.2,88,0.00,CLR,,0.00,0.0,WeatherDisplay:10.37,2013-12-21 10:04:00,
2013-12-21 00:09:00,68.8,65.1,30.03,NNE,13,0.1,1.2,88,0.00,CLR,,0.00,0.0,WeatherDisplay:10.37,2013-12-21 10:09:00,
2013-12-21 00:14:00,68.8,65.1,30.02,ENE,75,0.7,3.5,88,0.00,CLR,,0.00,0.0,WeatherDisplay:10.37,2013-12-21 10:14:00,
2013-12-21 00:19:00,68.8,65.1,30.02,NNE,30,0.8,2.3,88,0.00,CLR,,0.00,0.0,WeatherDisplay:10.37,2013-12-21 10:19:00,
2013-12-21 00:24:00,68.9,65.2,30.02,NNE,15,0.3,2.3,88,0.00,CLR,,0.00,0.0,WeatherDisplay:10.37,2013-12-21 10:24:00,
2013-12-21 00:29:00,68.9,65.2,30.02,NE,39,1.0,2.3,88,0.00,CLR,,0.00,0.0,WeatherDisplay:10.37,2013-12-21 10:29:00,
2013-12-21 00:34:00,69.0,65.3,30.02,NNE,22,2.7,3.5,88,0.00,CLR,,0.00,0.0,WeatherDisplay:10.37,2013-12-21 10:34:00,
2013-12-21 00:39:00,69.1,65.4,30.02,NE,44,2.5,3.5,88,0.00,CLR,,0.00,0.0,WeatherDisplay:10.37,2013-12-21 10:39:00,
2013-12-21 00:44:00,69.2,65.5,30.02,NNE,17,1.4,3.5,88,0.00,CLR,,0.00,0.0,WeatherDisplay:10.37,2013-12-21 10:44:00,
2013-12-21 00:49:00,69.2,65.5,30.02,NE,39,0.2,1.2,88,0.00,CLR,,0.00,0.0,WeatherDisplay:10.37,2013-12-21 10:49:00,
2013-12-21 00:54:00,69.1,65.4,30.02,NE,38,0.5,2.3,88,0.00,CLR,,0.00,0.0,WeatherDisplay:10.37,2013-12-21 10:54:00,
2013-12-21 00:59:00,69.1,65.4,30.02,NE,51,1.8,3.5,88,0.00,CLR,,0.00,0.0,WeatherDisplay:10.37,2013-12-21 10:59:00,
2013-12-21 01:04:00,69.0,65.3,30.02,NNE,28,0.9,2.3,88,0.00,CLR,,0.00,0.0,WeatherDisplay:10.37,2013-12-21 11:04:00,
2013-12-21 01:09:00,69.0,65.3,30.02,ENE,57,1.6,3.5,88,0.00,CLR,,0.00,0.0,WeatherDisplay:10.37,2013-12-21 11:09:00,
2013-12-21 01:14:00,69.0,65.3,30.01,NNE,14,4.0,6.9,88,0.00,CLR,,0.00,0.0,WeatherDisplay:10.37,2013-12-21 11:14:00,
2013-12-21 01:19:00,69.1,65.4,30.01,NNE,19,1.6,5.0,88,0.00,CLR,,0.00,0.0,WeatherDisplay:10.37,2013-12-21 11:19:00,
2013-12-21 01:24:00,69.1,65.4,30.01,ENE,64,2.1,3.5,88,0.00,CLR,,0.00,0.0,WeatherDisplay:10.37,2013-12-21 11:24:00,
2013-12-21 01:29:00,69.1,65.4,30.01,NE,44,1.4,3.5,88,0.00,CLR,,0.00,0.0,WeatherDisplay:10.37,2013-12-21 11:29:00,
2013-12-21 01:34:00,69.0,65.3,30.01,NE,43,1.5,3.5,88,0.00,CLR,,0.00,0.0,WeatherDisplay:10.37,2013-12-21 11:34:00,
2013-12-21 01:39:00,69.0,65.3,30.01,NNE,24,0.9,3.5,88,0.00,CLR,,0.00,0.0,WeatherDisplay:10.37,2013-12-21 11:39:00,
2013-12-21 01:44:00,69.0,65.3,30.01,NE,53,0.9,2.3,88,0.00,CLR,,0.00,0.0,WeatherDisplay:10.37,2013-12-21 11:44:00,
2013-12-21 01:49:00,69.0,65.3,30.01,NE,52,1.0,2.3,88,0.00,CLR,,0.00,0.0,WeatherDisplay:10.37,2013-12-21 11:49:00,
2013-12-21 01:54:00,69.1,65.4,30.01,NE,42,2.7,5.8,88,0.00,CLR,,0.00,0.0,WeatherDisplay:10.37,2013-12-21 11:54:00,
2013-12-21 01:59:00,69.1,65.4,30.01,ENE,57,1.0,3.5,88,0.00,CLR,,0.00,0.0,WeatherDisplay:10.37,2013-12-21 11:59:00,
2013-12-21 02:04:00,69.2,65.5,30.00,NNE,14,1.9,3.5,88,0.00,CLR,,0.00,0.0,WeatherDisplay:10.37,2013-12-21 12:04:00,
2013-12-21 02:09:00,69.2,65.5,30.01,NE,49,1.6,3.5,88,0.00,CLR,,0.00,0.0,WeatherDisplay:10.37,2013-12-21 12:09:00,
2013-12-21 02:14:00,69.2,65.5,30.00,NNE,26,2.1,3.5,88,0.00,CLR,,0.00,0.0,WeatherDisplay:10.37,2013-12-21 12:14:00,
2013-12-21 02:19:00,69.1,65.4,30.00,NNE,22,2.5,4.6,88,0.00,CLR,,0.00,0.0,WeatherDisplay:10.37,2013-12-21 12:19:00,
2013-12-21 02:24:00,69.1,65.4,30.00,ENE,60,2.6,3.5,88,0.00,CLR,,0.00,0.0,WeatherDisplay:10.37,2013-12-21 12:24:00,
2013-12-21 02:29:00,69.1,65.4,30.00,NE,55,1.6,2.3,88,0.00,CLR,,0.00,0.0,WeatherDisplay:10.37,2013-12-21 12:29:00,
2013-12-21 02:34:00,69.0,65.3,30.00,North,10,1.4,3.0,88,0.00,CLR,,0.00,0.0,WeatherDisplay:10.37,2013-12-21 12:34:00,
2013-12-21 02:39:00,68.9,65.2,30.00,ENE,74,1.7,6.9,88,0.00,CLR,,0.00,0.0,WeatherDisplay:10.37,2013-12-21 12:39:00,
2013-12-21 02:44:00,68.9,65.2,30.00,NNE,21,3.2,3.5,88,0.00,CLR,,0.00,0.0,WeatherDisplay:10.37,2013-12-21 12:44:00,
2013-12-21 02:49:00,68.9,65.2,30.00,NNE,15,1.3,3.5,88,0.00,CLR,,0.00,0.0,WeatherDisplay:10.37,2013-12-21 12:49:00,
2013-12-21 02:54:00,68.8,65.1,30.00,ENE,61,2.2,4.6,88,0.00,CLR,,0.00,0.0,WeatherDisplay:10.37,2013-12-21 12:54:00,
2013-12-21 02:59:00,68.8,65.1,30.00,NNE,26,2.6,8.1,88,0.00,CLR,,0.00,0.0,WeatherDisplay:10.37,2013-12-21 12:59:00,
2013-12-21 03:04:00,68.9,65.2,29.99,NNE,21,2.9,6.9,88,0.00,CLR,,0.00,0.0,WeatherDisplay:10.37,2013-12-21 13:04:00,
2013-12-21 03:09:00,68.9,65.2,30.00,North,9,3.0,7.0,88,0.00,CLR,,0.00,0.0,WeatherDisplay:10.37,2013-12-21 13:09:00,
2013-12-21 03:14:00,69.0,65.3,29.99,NNW,342,1.7,3.5,88,0.00,CLR,,0.00,0.0,WeatherDisplay:10.37,2013-12-21 13:14:00,
2013-12-21 03:19:00,69.0,65.3,30.00,NNE,29,1.7,2.3,88,0.00,CLR,,0.00,0.0,WeatherDisplay:10.37,2013-12-21 13:19:00,
2013-12-21 03:24:00,69.0,65.3,30.00,NNE,29,0.8,3.5,88,0.00,CLR,,0.00,0.0,WeatherDisplay:10.37,2013-12-21 13:24:00,
2013-12-21 03:29:00,68.9,65.2,30.00,NNE,17,1.2,3.5,88,0.00,CLR,,0.00,0.0,WeatherDisplay:10.37,2013-12-21 13:29:00,
2013-12-21 03:34:00,68.8,65.1,30.00,ENE,62,2.3,3.5,88,0.00,CLR,,0.00,0.0,WeatherDisplay:10.37,2013-12-21 13:34:00,
2013-12-21 03:39:00,68.8,65.1,30.00,NE,38,0.6,3.5,88,0.00,CLR,,0.00,0.0,WeatherDisplay:10.37,2013-12-21 13:39:00,
2013-12-21 03:44:00,68.8,65.1,30.00,ENE,57,0.4,3.5,88,0.00,CLR,,0.00,0.0,WeatherDisplay:10.37,2013-12-21 13:44:00,
2013-12-21 03:49:00,68.8,64.8,30.00,NE,56,0.4,2.3,87,0.00,CLR,,0.00,0.0,WeatherDisplay:10.37,2013-12-21 13:49:00,
2013-12-21 03:54:00,68.8,65.1,29.99,NNE,17,0.3,1.2,88,0.00,CLR,,0.00,0.0,WeatherDisplay:10.37,2013-12-21 13:54:00,
2013-12-21 03:59:00,68.7,65.0,29.99,NE,44,1.5,2.3,88,0.00,CLR,,0.00,0.0,WeatherDisplay:10.37,2013-12-21 13:59:00,
2013-12-21 04:04:00,68.6,64.6,29.99,NNE,23,0.9,3.5,87,0.00,CLR,,0.00,0.0,WeatherDisplay:10.37,2013-12-21 14:04:00,
2013-12-21 04:09:00,68.5,64.8,29.99,NE,42,1.4,3.5,88,0.00,CLR,,0.00,0.0,WeatherDisplay:10.37,2013-12-21 14:09:00,
2013-12-21 04:14:00,68.5,64.8,29.99,NE,42,0.7,2.3,88,0.00,CLR,,0.00,0.0,WeatherDisplay:10.37,2013-12-21 14:14:00,
2013-12-21 04:19:00,68.4,64.7,29.99,NE,42,0.8,3.5,88,0.00,CLR,,0.00,0.0,WeatherDisplay:10.37,2013-12-21 14:19:00,
2013-12-21 04:24:00,68.3,64.6,30.00,NE,42,0.1,1.2,88,0.00,CLR,,0.00,0.0,WeatherDisplay:10.37,2013-12-21 14:24:00,
2013-12-21 04:29:00,68.3,64.6,30.00,NNE,18,0.9,3.5,88,0.00,CLR,,0.00,0.0,WeatherDisplay:10.37,2013-12-21 14:29:00,
2013-12-21 04:34:00,68.4,64.7,30.00,NE,38,1.5,3.5,88,0.00,CLR,,0.00,0.0,WeatherDisplay:10.37,2013-12-21 14:34:00,
2013-12-21 04:39:00,68.5,64.8,29.99,NNE,32,2.0,3.5,88,0.00,CLR,,0.00,0.0,WeatherDisplay:10.37,2013-12-21 14:39:00,
2013-12-21 04:44:00,68.5,64.8,29.99,NE,40,1.4,3.5,88,0.00,CLR,,0.00,0.0,WeatherDisplay:10.37,2013-12-21 14:44:00,
2013-12-21 04:49:00,68.5,64.8,29.99,ENE,67,0.0,1.2,88,0.00,CLR,,0.00,0.0,WeatherDisplay:10.37,2013-12-21 14:49:00,
2013-12-21 04:54:00,68.5,64.8,29.99,NE,49,1.1,2.0,88,0.00,CLR,,0.00,0.0,WeatherDisplay:10.37,2013-12-21 14:54:00,
2013-12-21 04:59:00,68.5,64.8,29.99,NE,50,0.8,3.5,88,0.00,CLR,,0.00,0.0,WeatherDisplay:10.37,2013-12-21 14:59:00,
2013-12-21 05:04:00,68.5,64.8,29.99,NE,43,2.7,3.5,88,0.00,CLR,,0.00,0.0,WeatherDisplay:10.37,2013-12-21 15:04:00,
2013-12-21 05:09:00,68.5,64.8,29.98,NNE,13,0.4,2.3,88,0.00,CLR,,0.00,0.0,WeatherDisplay:10.37,2013-12-21 15:09:00,
2013-12-21 05:14:00,68.5,64.8,29.98,ENE,57,1.1,3.5,88,0.00,CLR,,0.00,0.0,WeatherDisplay:10.37,2013-12-21 15:14:00,
2013-12-21 05:19:00,68.5,64.8,29.97,NE,45,1.2,3.5,88,0.00,CLR,,0.00,0.0,WeatherDisplay:10.37,2013-12-21 15:19:00,
2013-12-21 05:24:00,68.5,64.8,29.97,NNE,27,1.8,3.5,88,0.00,CLR,,0.00,0.0,WeatherDisplay:10.37,2013-12-21 15:24:00,
2013-12-21 05:29:00,68.4,64.7,29.97,NE,53,2.2,3.5,88,0.00,CLR,,0.00,0.0,WeatherDisplay:10.37,2013-12-21 15:29:00,
2013-12-21 05:34:00,68.3,64.9,29.97,NE,46,2.9,5.8,89,0.00,CLR,,0.00,0.0,WeatherDisplay:10.37,2013-12-21 15:34:00,
2013-12-21 05:39:00,68.3,64.9,29.97,ENE,61,3.2,6.9,89,0.00,CLR,,0.00,0.0,WeatherDisplay:10.37,2013-12-21 15:39:00,
2013-12-21 05:44:00,68.4,65.0,29.97,NE,34,2.5,5.8,89,0.00,CLR,,0.00,0.0,WeatherDisplay:10.37,2013-12-21 15:44:00,
2013-12-21 05:49:00,68.4,65.0,29.97,NNE,18,4.1,8.1,89,0.00,CLR,,0.00,0.0,WeatherDisplay:10.37,2013-12-21 15:49:00,
2013-12-21 05:54:00,68.4,65.0,29.97,ENE,63,3.3,5.8,89,0.00,CLR,,0.00,0.0,WeatherDisplay:10.37,2013-12-21 15:54:00,
2013-12-21 05:59:00,68.4,64.7,29.97,NE,49,2.7,6.9,88,0.00,CLR,,0.00,0.0,WeatherDisplay:10.37,2013-12-21 15:59:00,
2013-12-21 06:04:00,68.5,64.8,29.97,North,9,1.9,4.6,88,0.00,CLR,,0.00,0.0,WeatherDisplay:10.37,2013-12-21 16:04:00,
2013-12-21 06:09:00,68.5,64.8,29.97,NE,37,3.1,5.0,88,0.00,CLR,,0.00,0.0,WeatherDisplay:10.37,2013-12-21 16:09:00,
2013-12-21 06:14:00,68.4,64.7,29.98,NE,40,4.1,8.1,88,0.00,CLR,,0.00,0.0,WeatherDisplay:10.37,2013-12-21 16:14:00,
2013-12-21 06:19:00,68.4,64.7,29.98,North,360,1.5,4.0,88,0.00,CLR,,0.00,0.0,WeatherDisplay:10.37,2013-12-21 16:19:00,
2013-12-21 06:24:00,68.4,64.7,29.99,ENE,68,1.9,6.9,88,0.00,CLR,,0.00,0.0,WeatherDisplay:10.37,2013-12-21 16:24:00,
2013-12-21 06:29:00,68.3,64.6,29.99,ENE,59,0.6,4.6,88,0.00,CLR,,0.00,0.0,WeatherDisplay:10.37,2013-12-21 16:29:00,
2013-12-21 06:34:00,68.3,64.6,29.99,ENE,72,2.8,4.6,88,0.00,CLR,,0.00,0.0,WeatherDisplay:10.37,2013-12-21 16:34:00,
2013-12-21 06:39:00,68.3,64.6,29.99,NE,37,0.5,3.5,88,0.00,CLR,,0.00,0.0,WeatherDisplay:10.37,2013-12-21 16:39:00,
2013-12-21 06:44:00,68.3,64.6,29.99,North,5,1.7,4.6,88,0.00,CLR,,0.00,0.0,WeatherDisplay:10.37,2013-12-21 16:44:00,
2013-12-21 06:49:00,68.3,64.6,29.99,NE,45,1.8,3.5,88,0.00,CLR,,0.00,0.0,WeatherDisplay:10.37,2013-12-21 16:49:00,
2013-12-21 06:54:00,68.3,64.6,30.00,NNE,23,1.8,3.5,88,0.00,CLR,,0.00,0.0,WeatherDisplay:10.37,2013-12-21 16:54:00,
2013-12-21 06:59:00,68.3,64.6,30.00,NNW,339,0.9,3.5,88,0.00,CLR,,0.00,0.0,WeatherDisplay:10.37,2013-12-21 16:59:00,
2013-12-21 07:05:00,68.2,64.5,30.00,ENE,59,0.7,2.3,88,0.00,CLR,,0.00,5.0,WeatherDisplay:10.37,2013-12-21 17:05:00,
2013-12-21 07:10:00,68.2,64.5,30.00,North,11,0.8,3.5,88,0.00,FEW,,0.00,7.0,WeatherDisplay:10.37,2013-12-21 17:10:00,
2013-12-21 07:15:00,68.2,64.5,30.00,North,10,1.3,3.5,88,0.00,BKN,,0.00,9.0,WeatherDisplay:10.37,2013-12-21 17:15:00,
2013-12-21 07:20:00,68.3,64.6,30.01,NNE,19,1.0,3.5,88,0.00,BKN,,0.00,14.0,WeatherDisplay:10.37,2013-12-21 17:20:00,
2013-12-21 07:25:00,68.3,64.6,30.01,NE,56,1.1,3.5,88,0.00,FEW,,0.00,28.0,WeatherDisplay:10.37,2013-12-21 17:25:00,
2013-12-21 07:30:00,68.4,64.7,30.01,NE,55,0.7,2.3,88,0.00,SCT,,0.00,28.0,WeatherDisplay:10.37,2013-12-21 17:30:00,
2013-12-21 07:35:00,68.5,64.8,30.01,NNE,17,0.7,2.3,88,0.00,BKN,,0.00,28.0,WeatherDisplay:10.37,2013-12-21 17:35:00,
2013-12-21 07:40:00,68.6,64.9,30.01,NNE,17,0.2,2.3,88,0.00,BKN,,0.00,37.0,WeatherDisplay:10.37,2013-12-21 17:40:00,
2013-12-21 07:45:00,68.8,65.1,30.01,NNE,19,0.0,0.0,88,0.00,BKN,,0.00,33.0,WeatherDisplay:10.37,2013-12-21 17:45:00,
2013-12-21 07:50:00,69.0,65.3,30.01,NNE,19,0.7,1.2,88,0.00,BKN,,0.00,49.0,WeatherDisplay:10.37,2013-12-21 17:50:00,
2013-12-21 07:55:00,69.2,65.5,30.01,North,360,1.9,3.5,88,0.00,BKN,,0.00,51.0,WeatherDisplay:10.37,2013-12-21 17:55:00,
2013-12-21 08:00:00,69.4,65.7,30.01,North,360,0.7,2.3,88,0.00,CLR,,0.00,91.0,WeatherDisplay:10.37,2013-12-21 18:00:00,
2013-12-21 08:05:00,69.7,66.0,30.02,NNE,26,0.9,2.3,88,0.00,CLR,,0.00,121.0,WeatherDisplay:10.37,2013-12-21 18:05:00,
2013-12-21 08:10:00,70.1,66.0,30.02,NNE,13,1.1,3.5,87,0.00,CLR,,0.00,132.0,WeatherDisplay:10.37,2013-12-21 18:10:00,
2013-12-21 08:15:00,70.5,66.4,30.02,NNE,13,0.0,1.2,87,0.00,CLR,,0.00,149.0,WeatherDisplay:10.37,2013-12-21 18:15:00,
2013-12-21 08:20:00,70.8,66.4,30.02,NE,53,1.7,3.5,86,0.00,CLR,,0.00,163.0,WeatherDisplay:10.37,2013-12-21 18:20:00,
2013-12-21 08:25:00,71.2,66.5,30.02,NE,53,0.0,1.2,85,0.00,FEW,,0.00,123.0,WeatherDisplay:10.37,2013-12-21 18:25:00,
2013-12-21 08:30:00,71.5,66.8,30.02,NE,51,0.9,3.5,85,0.00,CLR,,0.00,192.0,WeatherDisplay:10.37,2013-12-21 18:30:00,
2013-12-21 08:35:00,71.7,66.6,30.03,ENE,58,1.1,3.5,84,0.00,CLR,,0.00,258.0,WeatherDisplay:10.37,2013-12-21 18:35:00,
2013-12-21 08:40:00,71.9,66.8,30.02,NE,56,0.3,1.2,84,0.00,CLR,,0.00,278.0,WeatherDisplay:10.37,2013-12-21 18:40:00,
2013-12-21 08:45:00,72.1,67.0,30.03,ENE,59,0.1,1.2,84,0.00,SCT,,0.00,144.0,WeatherDisplay:10.37,2013-12-21 18:45:00,
2013-12-21 08:50:00,72.1,66.6,30.02,NE,39,2.4,3.5,83,0.00,CLR,,0.00,301.0,WeatherDisplay:10.37,2013-12-21 18:50:00,
2013-12-21 08:55:00,72.2,66.7,30.03,ENE,60,1.4,2.3,83,0.00,CLR,,0.00,197.0,WeatherDisplay:10.37,2013-12-21 18:55:00,
2013-12-21 09:00:00,72.2,66.7,30.03,NE,42,1.0,3.0,83,0.00,BKN,,0.00,111.0,WeatherDisplay:10.37,2013-12-21 19:00:00,
2013-12-21 09:02:00,72.2,66.7,30.03,ENE,63,3.0,3.5,83,0.00,BKN,,0.00,120.0,WeatherDisplay:10.37,2013-12-21 19:02:00,
2013-12-21 09:07:00,72.1,66.6,30.03,NNE,21,0.5,3.5,83,0.00,BKN,,0.00,141.0,WeatherDisplay:10.37,2013-12-21 19:07:00,
2013-12-21 09:12:00,72.1,66.6,30.03,NE,42,0.5,1.2,83,0.00,SCT,,0.00,190.0,WeatherDisplay:10.37,2013-12-21 19:12:00,
2013-12-21 09:17:00,72.1,66.6,30.03,North,5,1.1,3.5,83,0.00,SCT,,0.00,162.0,WeatherDisplay:10.37,2013-12-21 19:17:00,
2013-12-21 09:22:00,72.1,66.6,30.03,ENE,64,0.6,3.5,83,0.00,BKN,,0.00,169.0,WeatherDisplay:10.37,2013-12-21 19:22:00,
2013-12-21 09:27:00,72.2,67.1,30.03,ENE,71,1.0,3.0,84,0.00,CLR,,0.00,403.0,WeatherDisplay:10.37,2013-12-21 19:27:00,
2013-12-21 09:32:00,72.5,67.4,30.03,NE,53,1.6,3.5,84,0.00,CLR,,0.00,490.0,WeatherDisplay:10.37,2013-12-21 19:32:00,
2013-12-21 09:37:00,73.0,67.5,30.03,NE,51,1.6,5.8,83,0.00,CLR,,0.00,404.0,WeatherDisplay:10.37,2013-12-21 19:37:00,
2013-12-21 09:42:00,73.2,67.4,30.03,NE,54,1.2,3.0,82,0.00,BKN,,0.00,214.0,WeatherDisplay:10.37,2013-12-21 19:42:00,
2013-12-21 09:47:00,73.4,67.2,30.03,ESE,116,1.9,3.5,81,0.00,CLR,,0.00,533.0,WeatherDisplay:10.37,2013-12-21 19:47:00,
2013-12-21 09:52:00,73.9,67.7,30.02,ENE,65,0.7,4.6,81,0.00,CLR,,0.00,445.0,WeatherDisplay:10.37,2013-12-21 19:52:00,
2013-12-21 09:57:00,74.0,67.1,30.02,NE,41,3.0,3.0,79,0.00,OVC,,0.00,183.0,WeatherDisplay:10.37,2013-12-21 19:57:00,
2013-12-21 10:02:00,73.9,67.3,30.02,ENE,74,0.4,5.0,80,0.00,OVC,,0.00,125.0,WeatherDisplay:10.37,2013-12-21 20:02:00,
2013-12-21 10:07:00,73.7,67.1,30.03,NNE,21,3.3,5.8,80,0.00,BKN,,0.00,214.0,WeatherDisplay:10.37,2013-12-21 20:07:00,
2013-12-21 10:12:00,73.5,66.9,30.03,ENE,57,1.4,3.5,80,0.00,FEW,,0.00,388.0,WeatherDisplay:10.37,2013-12-21 20:12:00,
2013-12-21 10:17:00,73.5,67.3,30.02,North,5,1.6,2.3,81,0.00,SCT,,0.00,308.0,WeatherDisplay:10.37,2013-12-21 20:17:00,
2013-12-21 10:22:00,73.7,67.5,30.02,ENE,58,0.9,4.6,81,0.00,CLR,,0.00,376.0,WeatherDisplay:10.37,2013-12-21 20:22:00,
2013-12-21 10:27:00,73.9,67.7,30.02,ENE,61,2.4,5.0,81,0.00,CLR,,0.00,761.0,WeatherDisplay:10.37,2013-12-21 20:27:00,
2013-12-21 10:32:00,74.1,67.5,30.02,ESE,103,2.7,3.5,80,0.00,SCT,,0.00,279.0,WeatherDisplay:10.37,2013-12-21 20:32:00,
2013-12-21 10:37:00,74.3,67.7,30.02,East,79,1.2,3.5,80,0.00,FEW,,0.00,341.0,WeatherDisplay:10.37,2013-12-21 20:37:00,
2013-12-21 10:42:00,74.6,68.0,30.01,ENE,67,1.9,3.5,80,0.00,CLR,,0.00,851.0,WeatherDisplay:10.37,2013-12-21 20:42:00,
2013-12-21 10:47:00,75.0,68.0,30.01,ENE,66,3.2,6.9,79,0.00,CLR,,0.00,415.0,WeatherDisplay:10.37,2013-12-21 20:47:00,
2013-12-21 10:52:00,75.3,68.3,30.01,ENE,61,3.1,5.8,79,0.00,CLR,,0.00,867.0,WeatherDisplay:10.37,2013-12-21 20:52:00,
2013-12-21 10:57:00,75.9,68.5,30.01,ENE,68,3.4,6.9,78,0.00,CLR,,0.00,643.0,WeatherDisplay:10.37,2013-12-21 20:57:00,
2013-12-21 11:02:00,75.9,68.5,30.01,NE,51,0.8,4.0,78,0.00,SCT,,0.00,318.0,WeatherDisplay:10.37,2013-12-21 21:02:00,
2013-12-21 11:07:00,75.6,67.9,30.01,ENE,73,3.4,5.8,77,0.00,CLR,,0.00,612.0,WeatherDisplay:10.37,2013-12-21 21:07:00,
2013-12-21 11:12:00,75.4,68.4,30.01,ENE,63,1.3,3.5,79,0.00,FEW,,0.00,415.0,WeatherDisplay:10.37,2013-12-21 21:12:00,
2013-12-21 11:17:00,75.4,68.4,30.01,SE,126,1.9,5.0,79,0.00,CLR,,0.00,671.0,WeatherDisplay:10.37,2013-12-21 21:17:00,
2013-12-21 11:22:00,75.5,68.2,30.01,East,90,2.8,4.6,78,0.00,CLR,,0.00,526.0,WeatherDisplay:10.37,2013-12-21 21:22:00,
2013-12-21 11:27:00,75.6,68.3,30.01,East,99,3.2,6.9,78,0.00,CLR,,0.00,835.0,WeatherDisplay:10.37,2013-12-21 21:27:00,
2013-12-21 11:32:00,75.9,68.5,30.00,East,96,1.7,7.0,78,0.00,CLR,,0.00,932.0,WeatherDisplay:10.37,2013-12-21 21:32:00,
2013-12-21 11:37:00,76.5,68.7,30.00,ESE,120,5.3,8.1,77,0.00,CLR,,0.00,874.0,WeatherDisplay:10.37,2013-12-21 21:37:00,
2013-12-21 11:42:00,76.8,68.3,30.00,NE,53,2.6,6.9,75,0.00,BKN,,0.00,250.0,WeatherDisplay:10.37,2013-12-21 21:42:00,
2013-12-21 11:47:00,76.7,68.2,30.00,ENE,65,3.4,6.9,75,0.00,CLR,,0.00,828.0,WeatherDisplay:10.37,2013-12-21 21:47:00,
2013-12-21 11:52:00,77.0,68.5,30.00,SE,132,4.6,5.8,75,0.00,CLR,,0.00,840.0,WeatherDisplay:10.37,2013-12-21 21:52:00,
2013-12-21 11:57:00,77.3,68.4,29.99,East,88,1.7,6.9,74,0.00,BKN,,0.00,288.0,WeatherDisplay:10.37,2013-12-21 21:57:00,
2013-12-21 12:02:00,77.2,68.7,29.99,East,90,1.7,4.0,75,0.00,OVC,,0.00,197.0,WeatherDisplay:10.37,2013-12-21 22:02:00,
2013-12-21 12:07:00,77.0,68.5,29.99,ENE,58,0.1,0.0,75,0.00,BKN,,0.00,209.0,WeatherDisplay:10.37,2013-12-21 22:07:00,
2013-12-21 12:12:00,76.7,68.6,29.99,East,92,1.3,6.9,76,0.00,BKN,,0.00,243.0,WeatherDisplay:10.37,2013-12-21 22:12:00,
2013-12-21 12:17:00,76.7,68.9,29.98,NE,46,2.2,5.8,77,0.00,CLR,,0.00,1005.0,WeatherDisplay:10.37,2013-12-21 22:17:00,
2013-12-21 12:22:00,76.8,68.7,29.98,NNE,26,1.4,4.6,76,0.00,CLR,,0.00,919.0,WeatherDisplay:10.37,2013-12-21 22:22:00,
2013-12-21 12:27:00,76.9,68.8,29.98,East,101,4.1,4.1,76,0.00,CLR,,0.00,933.0,WeatherDisplay:10.37,2013-12-21 22:27:00,
2013-12-21 12:32:00,77.1,69.3,29.98,East,83,0.9,3.5,77,0.00,SCT,,0.00,891.0,WeatherDisplay:10.37,2013-12-21 22:32:00,
2013-12-21 12:37:00,77.5,69.3,29.98,ENE,72,2.5,3.5,76,0.00,CLR,,0.00,824.0,WeatherDisplay:10.37,2013-12-21 22:37:00,
2013-12-21 12:42:00,77.8,68.8,29.97,ESE,111,1.1,3.5,74,0.00,BKN,,0.00,336.0,WeatherDisplay:10.37,2013-12-21 22:42:00,
2013-12-21 12:47:00,77.9,68.5,29.97,NNE,25,2.4,4.0,73,0.00,CLR,,0.00,837.0,WeatherDisplay:10.37,2013-12-21 22:47:00,
2013-12-21 12:52:00,78.0,67.8,29.97,ESE,113,1.5,3.0,71,0.00,OVC,,0.00,185.0,WeatherDisplay:10.37,2013-12-21 22:52:00,
2013-12-21 12:57:00,77.6,67.0,29.97,NE,42,4.9,9.2,70,0.00,OVC,,0.00,200.0,WeatherDisplay:10.37,2013-12-21 22:57:00,
2013-12-21 13:02:00,77.3,67.2,29.97,ENE,59,0.8,2.3,71,0.00,OVC,,0.00,257.0,WeatherDisplay:10.37,2013-12-21 23:02:00,
2013-12-21 13:07:00,77.2,66.7,29.97,ESE,115,3.2,5.8,70,0.00,CLR,,0.00,728.0,WeatherDisplay:10.37,2013-12-21 23:07:00,
2013-12-21 13:12:00,76.9,67.2,29.97,NE,42,2.1,4.6,72,0.00,BKN,,0.00,204.0,WeatherDisplay:10.37,2013-12-21 23:12:00,
2013-12-21 13:17:00,77.1,68.2,29.96,SE,128,1.9,3.5,74,0.00,CLR,,0.00,819.0,WeatherDisplay:10.37,2013-12-21 23:17:00,
2013-12-21 13:22:00,77.5,68.2,29.96,ESE,113,0.6,3.5,73,0.00,CLR,,0.00,877.0,WeatherDisplay:10.37,2013-12-21 23:22:00,
2013-12-21 13:27:00,78.1,68.3,29.96,South,188,1.1,5.8,72,0.00,CLR,,0.00,831.0,WeatherDisplay:10.37,2013-12-21 23:27:00,
2013-12-21 13:32:00,78.5,68.7,29.95,ESE,114,2.6,3.5,72,0.00,SCT,,0.00,330.0,WeatherDisplay:10.37,2013-12-21 23:32:00,
2013-12-21 13:37:00,78.6,68.8,29.95,East,98,2.0,3.5,72,0.00,SCT,,0.00,327.0,WeatherDisplay:10.37,2013-12-21 23:37:00,
2013-12-21 13:42:00,78.6,68.8,29.95,East,98,0.3,1.0,72,0.00,SCT,,0.00,401.0,WeatherDisplay:10.37,2013-12-21 23:42:00,
2013-12-21 13:47:00,78.5,68.3,29.95,NE,49,2.1,9.2,71,0.00,OVC,,0.00,153.0,WeatherDisplay:10.37,2013-12-21 23:47:00,
2013-12-21 13:52:00,77.9,67.7,29.95,ESE,109,0.9,3.5,71,0.00,OVC,,0.00,88.0,WeatherDisplay:10.37,2013-12-21 23:52:00,
2013-12-21 13:57:00,77.5,67.8,29.95,East,84,1.5,3.5,72,0.00,OVC,,0.00,91.0,WeatherDisplay:10.37,2013-12-21 23:57:00,
2013-12-21 14:02:00,77.1,67.8,29.95,ENE,57,3.1,3.5,73,0.00,OVC,,0.00,114.0,WeatherDisplay:10.37,2013-12-22 00:02:00,
2013-12-21 14:07:00,76.5,67.6,29.94,ENE,65,1.4,3.5,74,0.00,OVC,,0.00,95.0,WeatherDisplay:10.37,2013-12-22 00:07:00,
2013-12-21 14:12:00,76.1,67.6,29.95,ESE,121,2.2,3.5,75,0.00,OVC,,0.00,100.0,WeatherDisplay:10.37,2013-12-22 00:12:00,
2013-12-21 14:17:00,75.8,67.3,29.95,ESE,121,0.0,1.2,75,0.00,OVC,,0.00,114.0,WeatherDisplay:10.37,2013-12-22 00:17:00,
2013-12-21 14:22:00,75.6,67.1,29.94,ESE,121,0.3,2.3,75,0.00,OVC,,0.00,156.0,WeatherDisplay:10.37,2013-12-22 00:22:00,
2013-12-21 14:27:00,75.5,67.4,29.94,West,259,1.2,3.5,76,0.00,OVC,,0.00,118.0,WeatherDisplay:10.37,2013-12-22 00:27:00,
2013-12-21 14:32:00,75.5,67.8,29.94,West,259,3.7,5.8,77,0.00,OVC,,0.00,144.0,WeatherDisplay:10.37,2013-12-22 00:32:00,
2013-12-21 14:37:00,75.3,68.0,29.94,WSW,240,4.1,5.8,78,0.00,BKN,,0.00,174.0,WeatherDisplay:10.37,2013-12-22 00:37:00,
2013-12-21 14:42:00,75.1,67.8,29.94,North,355,0.8,1.2,78,0.00,BKN,,0.00,202.0,WeatherDisplay:10.37,2013-12-22 00:42:00,
2013-12-21 14:47:00,75.2,68.6,29.94,West,270,1.3,2.3,80,0.00,CLR,,0.00,503.0,WeatherDisplay:10.37,2013-12-22 00:47:00,
2013-12-21 14:52:00,75.5,68.9,29.94,SW,221,3.2,5.0,80,0.00,SCT,,0.00,211.0,WeatherDisplay:10.37,2013-12-22 00:52:00,
2013-12-21 14:57:00,75.3,68.7,29.94,WSW,244,3.4,8.1,80,0.00,BKN,,0.00,185.0,WeatherDisplay:10.37,2013-12-22 00:57:00,
2013-12-21 15:02:00,75.1,68.5,29.94,WSW,254,3.7,7.0,80,0.00,BKN,,0.00,176.0,WeatherDisplay:10.37,2013-12-22 01:02:00,
2013-12-21 15:07:00,74.9,68.7,29.94,WNW,295,1.0,3.5,81,0.00,BKN,,0.00,232.0,WeatherDisplay:10.37,2013-12-22 01:07:00,
2013-12-21 15:12:00,74.9,68.7,29.94,WNW,290,1.3,3.5,81,0.00,BKN,,0.00,160.0,WeatherDisplay:10.37,2013-12-22 01:12:00,
2013-12-21 15:17:00,74.9,68.7,29.94,West,275,2.4,3.5,81,0.00,BKN,,0.00,169.0,WeatherDisplay:10.37,2013-12-22 01:17:00,
2013-12-21 15:22:00,74.8,68.6,29.94,NW,321,0.4,3.5,81,0.00,BKN,,0.00,127.0,WeatherDisplay:10.37,2013-12-22 01:22:00,
2013-12-21 15:27:00,74.6,68.4,29.94,WSW,256,0.1,3.5,81,0.00,OVC,,0.00,132.0,WeatherDisplay:10.37,2013-12-22 01:27:00,
2013-12-21 15:32:00,74.6,68.4,29.94,WSW,243,2.5,3.5,81,0.00,BKN,,0.00,135.0,WeatherDisplay:10.37,2013-12-22 01:32:00,
2013-12-21 15:37:00,74.5,68.6,29.94,SSW,207,2.3,7.0,82,0.00,OVC,,0.00,118.0,WeatherDisplay:10.37,2013-12-22 01:37:00,
2013-12-21 15:42:00,74.3,68.4,29.93,WSW,246,2.4,3.5,82,0.00,BKN,,0.00,160.0,WeatherDisplay:10.37,2013-12-22 01:42:00,
2013-12-21 15:47:00,74.0,68.5,29.93,West,272,2.4,3.5,83,0.00,BKN,,0.00,118.0,WeatherDisplay:10.37,2013-12-22 01:47:00,
2013-12-21 15:52:00,73.8,68.3,29.94,WSW,240,1.0,3.5,83,0.00,OVC,,0.00,93.0,WeatherDisplay:10.37,2013-12-22 01:52:00,
2013-12-21 15:57:00,73.7,68.6,29.94,WSW,255,0.0,2.3,84,0.00,BKN,,0.00,113.0,WeatherDisplay:10.37,2013-12-22 01:57:00,
2013-12-21 16:02:00,73.6,68.5,29.94,WSW,255,0.1,0.0,84,0.00,BKN,,0.00,86.0,WeatherDisplay:10.37,2013-12-22 02:02:00,
2013-12-21 16:07:00,73.6,68.1,29.94,West,264,0.3,2.3,83,0.00,CLR,,0.00,86.0,WeatherDisplay:10.37,2013-12-22 02:07:00,
2013-12-21 16:12:00,73.6,68.1,29.94,West,276,0.7,3.5,83,0.00,CLR,,0.00,77.0,WeatherDisplay:10.37,2013-12-22 02:12:00,
2013-12-21 16:17:00,73.5,68.0,29.94,West,276,0.3,2.3,83,0.00,CLR,,0.00,70.0,WeatherDisplay:10.37,2013-12-22 02:17:00,
2013-12-21 16:22:00,73.6,68.1,29.94,SW,223,0.8,2.3,83,0.00,CLR,,0.00,62.0,WeatherDisplay:10.37,2013-12-22 02:22:00,
2013-12-21 16:27:00,73.5,68.0,29.94,West,272,2.6,4.6,83,0.00,BKN,,0.00,77.0,WeatherDisplay:10.37,2013-12-22 02:27:00,
2013-12-21 16:32:00,73.4,68.3,29.94,WNW,292,0.7,2.3,84,0.00,BKN,,0.00,93.0,WeatherDisplay:10.37,2013-12-22 02:32:00,
2013-12-21 16:37:00,73.3,68.2,29.94,WNW,292,0.3,1.0,84,0.00,BKN,,0.00,70.0,WeatherDisplay:10.37,2013-12-22 02:37:00,
2013-12-21 16:42:00,73.2,68.1,29.94,WNW,292,0.4,2.3,84,0.00,BKN,,0.00,60.0,WeatherDisplay:10.37,2013-12-22 02:42:00,
2013-12-21 16:47:00,73.2,68.1,29.94,WNW,292,0.0,1.2,84,0.00,BKN,,0.00,72.0,WeatherDisplay:10.37,2013-12-22 02:47:00,
2013-12-21 16:52:00,73.1,67.6,29.95,WNW,292,0.0,1.2,83,0.00,SCT,,0.00,77.0,WeatherDisplay:10.37,2013-12-22 02:52:00,
2013-12-21 16:57:00,73.1,67.6,29.95,WNW,292,0.0,0.0,83,0.00,BKN,,0.00,47.0,WeatherDisplay:10.37,2013-12-22 02:57:00,
2013-12-21 17:02:00,73.1,67.6,29.95,WSW,257,0.9,1.2,83,0.00,BKN,,0.00,54.0,WeatherDisplay:10.37,2013-12-22 03:02:00,
2013-12-21 17:07:00,73.2,68.1,29.95,SSW,213,0.2,1.2,84,0.00,BKN,,0.00,44.0,WeatherDisplay:10.37,2013-12-22 03:07:00,
2013-12-21 17:13:00,73.2,68.1,29.95,SW,218,2.0,3.5,84,0.00,BKN,,0.00,30.0,WeatherDisplay:10.37,2013-12-22 03:13:00,
2013-12-21 17:18:00,73.1,68.0,29.95,SW,225,0.2,2.3,84,0.00,CLR,,0.00,19.0,WeatherDisplay:10.37,2013-12-22 03:18:00,
2013-12-21 17:23:00,73.0,67.9,29.96,SW,229,0.2,1.2,84,0.00,CLR,,0.00,16.0,WeatherDisplay:10.37,2013-12-22 03:23:00,
2013-12-21 17:28:00,72.8,67.7,29.95,SW,229,0.0,0.0,84,0.00,BKN,,0.00,19.0,WeatherDisplay:10.37,2013-12-22 03:28:00,
2013-12-21 17:33:00,72.7,67.2,29.96,SW,229,0.0,0.0,83,0.00,SCT,,0.00,25.0,WeatherDisplay:10.37,2013-12-22 03:33:00,
2013-12-21 17:38:00,72.6,67.5,29.96,SW,229,0.0,0.0,84,0.00,SCT,,0.00,19.0,WeatherDisplay:10.37,2013-12-22 03:38:00,
2013-12-21 17:43:00,72.5,67.4,29.96,SW,229,0.0,0.0,84,0.00,BKN,,0.00,12.0,WeatherDisplay:10.37,2013-12-22 03:43:00,
2013-12-21 17:48:00,72.5,67.0,29.96,SW,229,0.0,0.0,83,0.00,CLR,,0.00,11.0,WeatherDisplay:10.37,2013-12-22 03:48:00,
2013-12-21 17:53:00,72.4,66.9,29.97,SW,229,0.0,0.0,83,0.00,CLR,,0.00,7.0,WeatherDisplay:10.37,2013-12-22 03:53:00,
2013-12-21 17:58:00,72.3,66.8,29.97,SW,229,0.0,0.0,83,0.00,CLR,,0.00,5.0,WeatherDisplay:10.37,2013-12-22 03:58:00,
2013-12-21 18:03:00,72.2,66.7,29.97,SW,229,0.0,0.0,83,0.00,CLR,,0.00,0.0,WeatherDisplay:10.37,2013-12-22 04:03:00,
2013-12-21 18:08:00,72.2,66.7,29.97,SW,229,0.0,0.0,83,0.00,CLR,,0.00,0.0,WeatherDisplay:10.37,2013-12-22 04:08:00,
2013-12-21 18:13:00,72.2,66.7,29.97,SW,229,0.0,0.0,83,0.00,CLR,,0.00,0.0,WeatherDisplay:10.37,2013-12-22 04:13:00,
2013-12-21 18:18:00,72.2,67.1,29.97,SW,232,0.0,0.0,84,0.00,CLR,,0.00,0.0,WeatherDisplay:10.37,2013-12-22 04:18:00,
2013-12-21 18:23:00,72.0,66.6,29.97,NE,49,0.8,2.3,83,0.00,CLR,,0.00,0.0,WeatherDisplay:10.37,2013-12-22 04:23:00,
2013-12-21 18:28:00,71.9,66.5,29.98,NE,47,0.5,1.2,83,0.00,CLR,,0.00,0.0,WeatherDisplay:10.37,2013-12-22 04:28:00,
2013-12-21 18:33:00,71.8,66.4,29.98,NE,47,0.7,3.5,83,0.00,CLR,,0.00,0.0,WeatherDisplay:10.37,2013-12-22 04:33:00,
2013-12-21 18:38:00,71.7,66.6,29.98,NE,47,0.0,0.0,84,0.00,CLR,,0.00,0.0,WeatherDisplay:10.37,2013-12-22 04:38:00,
2013-12-21 18:43:00,71.6,66.5,29.99,NE,47,0.1,1.2,84,0.00,CLR,,0.00,0.0,WeatherDisplay:10.37,2013-12-22 04:43:00,
2013-12-21 18:48:00,71.5,66.4,29.99,NE,47,0.0,0.0,84,0.00,CLR,,0.00,0.0,WeatherDisplay:10.37,2013-12-22 04:48:00,
2013-12-21 18:53:00,71.5,66.4,29.99,NE,47,0.0,0.0,84,0.00,CLR,,0.00,0.0,WeatherDisplay:10.37,2013-12-22 04:53:00,
2013-12-21 18:58:00,71.3,66.2,29.98,NE,47,0.0,1.2,84,0.00,CLR,,0.00,0.0,WeatherDisplay:10.37,2013-12-22 04:58:00,
2013-12-21 19:01:00,71.2,66.1,29.99,NE,47,0.0,1.2,84,0.00,CLR,,0.00,0.0,WeatherDisplay:10.37,2013-12-22 05:01:00,
2013-12-21 19:06:00,71.1,66.0,29.99,NE,47,0.0,0.0,84,0.00,CLR,,0.00,0.0,WeatherDisplay:10.37,2013-12-22 05:06:00,
2013-12-21 19:11:00,70.9,65.8,29.99,NE,47,0.4,2.3,84,0.00,CLR,,0.00,0.0,WeatherDisplay:10.37,2013-12-22 05:11:00,
2013-12-21 19:16:00,70.8,65.7,29.99,NE,47,0.0,0.0,84,0.00,CLR,,0.00,0.0,WeatherDisplay:10.37,2013-12-22 05:16:00,
2013-12-21 19:21:00,70.6,65.5,29.99,NE,47,0.2,1.2,84,0.00,CLR,,0.00,0.0,WeatherDisplay:10.37,2013-12-22 05:21:00,
2013-12-21 19:26:00,70.4,65.7,29.99,NE,47,0.0,0.0,85,0.00,CLR,,0.00,0.0,WeatherDisplay:10.37,2013-12-22 05:26:00,
2013-12-21 19:31:00,70.2,65.5,30.00,NE,47,0.0,0.0,85,0.00,CLR,,0.00,0.0,WeatherDisplay:10.37,2013-12-22 05:31:00,
2013-12-21 19:36:00,70.1,65.4,30.00,NE,47,0.1,1.0,85,0.00,CLR,,0.00,0.0,WeatherDisplay:10.37,2013-12-22 05:36:00,
2013-12-21 19:41:00,69.9,65.2,30.00,NE,47,0.0,1.2,85,0.00,CLR,,0.00,0.0,WeatherDisplay:10.37,2013-12-22 05:41:00,
2013-12-21 19:46:00,69.8,65.4,30.00,NE,47,0.0,0.0,86,0.00,CLR,,0.00,0.0,WeatherDisplay:10.37,2013-12-22 05:46:00,
2013-12-21 19:51:00,69.7,65.3,30.00,NE,47,0.0,0.0,86,0.00,CLR,,0.00,0.0,WeatherDisplay:10.37,2013-12-22 05:51:00,
2013-12-21 19:56:00,69.6,65.2,30.00,NE,47,0.5,0.0,86,0.00,CLR,,0.00,0.0,WeatherDisplay:10.37,2013-12-22 05:56:00,
2013-12-21 20:01:00,69.5,65.1,30.00,NE,47,0.3,2.3,86,0.00,CLR,,0.00,0.0,WeatherDisplay:10.37,2013-12-22 06:01:00,
2013-12-21 20:06:00,69.4,65.0,30.01,NE,47,0.1,1.2,86,0.00,CLR,,0.00,0.0,WeatherDisplay:10.37,2013-12-22 06:06:00,
2013-12-21 20:11:00,69.3,64.9,30.01,NE,47,0.1,1.2,86,0.00,CLR,,0.00,0.0,WeatherDisplay:10.37,2013-12-22 06:11:00,
2013-12-21 20:16:00,69.2,64.8,30.01,NE,47,0.0,2.3,86,0.00,CLR,,0.00,0.0,WeatherDisplay:10.37,2013-12-22 06:16:00,
2013-12-21 20:21:00,69.1,64.7,30.01,NE,47,0.9,2.3,86,0.00,CLR,,0.00,0.0,WeatherDisplay:10.37,2013-12-22 06:21:00,
2013-12-21 20:26:00,69.0,64.6,30.02,NE,47,0.4,0.0,86,0.00,CLR,,0.00,0.0,WeatherDisplay:10.37,2013-12-22 06:26:00,
2013-12-21 20:31:00,68.9,64.5,30.01,NE,47,0.3,1.2,86,0.00,CLR,,0.00,0.0,WeatherDisplay:10.37,2013-12-22 06:31:00,
2013-12-21 20:36:00,68.8,64.8,30.01,NE,47,0.0,1.0,87,0.00,CLR,,0.00,0.0,WeatherDisplay:10.37,2013-12-22 06:36:00,
2013-12-21 20:41:00,68.8,64.8,30.01,NE,47,0.5,1.0,87,0.00,CLR,,0.00,0.0,WeatherDisplay:10.37,2013-12-22 06:41:00,
2013-12-21 20:46:00,68.8,64.8,30.02,NE,46,0.8,2.3,87,0.00,CLR,,0.00,0.0,WeatherDisplay:10.37,2013-12-22 06:46:00,
2013-12-21 20:51:00,68.8,64.8,30.01,NE,40,2.9,3.5,87,0.00,CLR,,0.00,0.0,WeatherDisplay:10.37,2013-12-22 06:51:00,
2013-12-21 20:56:00,68.9,64.5,30.01,NE,55,0.0,2.3,86,0.00,CLR,,0.00,0.0,WeatherDisplay:10.37,2013-12-22 06:56:00,
2013-12-21 20:59:00,69.0,64.6,30.01,NE,55,0.4,2.3,86,0.00,CLR,,0.00,0.0,WeatherDisplay:10.37,2013-12-22 06:59:00,
2013-12-21 21:06:00,69.1,64.7,30.01,NNE,24,2.5,3.5,86,0.00,CLR,,0.00,0.0,WeatherDisplay:10.37,2013-12-22 07:06:00,
2013-12-21 21:11:00,69.2,64.5,30.01,NNW,348,0.3,3.5,85,0.00,CLR,,0.00,0.0,WeatherDisplay:10.37,2013-12-22 07:11:00,
2013-12-21 21:16:00,69.3,64.6,30.01,NE,44,2.2,3.5,85,0.00,CLR,,0.00,0.0,WeatherDisplay:10.37,2013-12-22 07:16:00,
2013-12-21 21:21:00,69.3,64.6,30.01,NNE,22,0.7,3.5,85,0.00,CLR,,0.00,0.0,WeatherDisplay:10.37,2013-12-22 07:21:00,
2013-12-21 21:26:00,69.4,64.7,30.01,NNE,29,1.9,3.5,85,0.00,CLR,,0.00,0.0,WeatherDisplay:10.37,2013-12-22 07:26:00,
2013-12-21 21:31:00,69.3,64.3,30.01,NNE,26,1.8,6.9,84,0.00,CLR,,0.00,0.0,WeatherDisplay:10.37,2013-12-22 07:31:00,
2013-12-21 21:36:00,69.3,64.3,30.01,NNE,20,0.7,3.5,84,0.00,CLR,,0.00,0.0,WeatherDisplay:10.37,2013-12-22 07:36:00,
2013-12-21 21:41:00,69.4,64.4,30.01,NNE,26,1.8,2.3,84,0.00,CLR,,0.00,0.0,WeatherDisplay:10.37,2013-12-22 07:41:00,
2013-12-21 21:46:00,69.4,64.4,30.01,NNE,26,1.6,2.3,84,0.00,CLR,,0.00,0.0,WeatherDisplay:10.37,2013-12-22 07:46:00,
2013-12-21 21:51:00,69.4,64.4,30.02,NNE,26,0.5,3.5,84,0.00,CLR,,0.00,0.0,WeatherDisplay:10.37,2013-12-22 07:51:00,
2013-12-21 21:56:00,69.4,64.4,30.02,NNE,28,2.2,3.5,84,0.00,CLR,,0.00,0.0,WeatherDisplay:10.37,2013-12-22 07:56:00,
2013-12-21 22:01:00,69.4,64.0,30.02,ENE,67,1.4,3.5,83,0.00,CLR,,0.00,0.0,WeatherDisplay:10.37,2013-12-22 08:01:00,
2013-12-21 22:06:00,69.4,64.0,30.02,North,5,1.5,3.5,83,0.00,CLR,,0.00,0.0,WeatherDisplay:10.37,2013-12-22 08:06:00,
2013-12-21 22:11:00,69.4,64.0,30.01,North,5,0.4,2.3,83,0.00,CLR,,0.00,0.0,WeatherDisplay:10.37,2013-12-22 08:11:00,
2013-12-21 22:16:00,69.4,64.0,30.01,North,5,0.5,4.0,83,0.00,CLR,,0.00,0.0,WeatherDisplay:10.37,2013-12-22 08:16:00,
2013-12-21 22:21:00,69.3,63.9,30.02,North,355,0.1,1.2,83,0.00,CLR,,0.00,0.0,WeatherDisplay:10.37,2013-12-22 08:21:00,
2013-12-21 22:26:00,69.2,63.8,30.02,North,355,0.3,2.3,83,0.00,CLR,,0.00,0.0,WeatherDisplay:10.37,2013-12-22 08:26:00,
2013-12-21 22:31:00,69.2,63.8,30.02,North,355,0.6,2.3,83,0.00,CLR,,0.00,0.0,WeatherDisplay:10.37,2013-12-22 08:31:00,
2013-12-21 22:36:00,69.0,63.6,30.01,North,355,1.2,2.3,83,0.00,CLR,,0.00,0.0,WeatherDisplay:10.37,2013-12-22 08:36:00,
2013-12-21 22:41:00,68.9,63.5,30.01,North,355,0.4,2.3,83,0.00,CLR,,0.00,0.0,WeatherDisplay:10.37,2013-12-22 08:41:00,
2013-12-21 22:46:00,68.8,63.8,30.01,NE,34,0.2,3.5,84,0.00,CLR,,0.00,0.0,WeatherDisplay:10.37,2013-12-22 08:46:00,
2013-12-21 22:51:00,68.7,63.7,30.01,North,5,1.3,3.5,84,0.00,CLR,,0.00,0.0,WeatherDisplay:10.37,2013-12-22 08:51:00,
2013-12-21 22:56:00,68.7,63.7,30.01,North,5,0.2,2.3,84,0.00,CLR,,0.00,0.0,WeatherDisplay:10.37,2013-12-22 08:56:00,
2013-12-21 23:01:00,68.6,63.6,30.00,North,5,0.3,2.3,84,0.00,CLR,,0.00,0.0,WeatherDisplay:10.37,2013-12-22 09:01:00,
2013-12-21 23:06:00,68.5,63.5,30.00,North,5,0.3,1.2,84,0.00,CLR,,0.00,0.0,WeatherDisplay:10.37,2013-12-22 09:06:00,
2013-12-21 23:11:00,68.4,63.4,30.00,North,5,0.8,3.5,84,0.00,CLR,,0.00,0.0,WeatherDisplay:10.37,2013-12-22 09:11:00,
2013-12-21 23:16:00,68.4,63.4,30.00,North,5,0.1,2.3,84,0.00,CLR,,0.00,0.0,WeatherDisplay:10.37,2013-12-22 09:16:00,
2013-12-21 23:21:00,68.3,63.3,30.00,North,5,0.0,0.0,84,0.00,CLR,,0.00,0.0,WeatherDisplay:10.37,2013-12-22 09:21:00,
2013-12-21 23:26:00,68.3,63.3,30.00,North,5,0.0,0.0,84,0.00,CLR,,0.00,0.0,WeatherDisplay:10.37,2013-12-22 09:26:00,
2013-12-21 23:31:00,68.2,63.2,30.00,North,5,0.0,0.0,84,0.00,CLR,,0.00,0.0,WeatherDisplay:10.37,2013-12-22 09:31:00,
2013-12-21 23:36:00,68.0,63.3,30.00,North,5,0.2,0.0,85,0.00,CLR,,0.00,0.0,WeatherDisplay:10.37,2013-12-22 09:36:00,
2013-12-21 23:41:00,67.9,63.2,30.00,North,5,0.1,1.2,85,0.00,CLR,,0.00,0.0,WeatherDisplay:10.37,2013-12-22 09:41:00,
2013-12-21 23:46:00,67.8,63.1,30.00,North,5,0.0,0.0,85,0.00,CLR,,0.00,0.0,WeatherDisplay:10.37,2013-12-22 09:46:00,
2013-12-21 23:51:00,67.6,62.9,30.00,North,5,0.1,1.2,85,0.00,CLR,,0.00,0.0,WeatherDisplay:10.37,2013-12-22 09:51:00,
2013-12-21 23:56:00,67.5,62.8,30.00,North,5,0.0,0.0,85,0.00,CLR,,0.00,0.0,WeatherDisplay:10.37,2013-12-22 09:56:00,